Seymour Johnson Air Force Base
KGSB : now visible

Airfield :











YOU CAN JOIN US ON...

 
LOGIN :

Register | Disclaimer

   EN    FR    IT 

 









Legend :    VFR   Marginal VFR   IFR   Intensive IFR   Very Intensive IFR
Visi :
Ceiling :
>= 8 km
>= 3000ft
5 to 8 km
1000 to 3000 ft
1500m to 5 km
500 to 1000 ft
800 to 1500m
200 to 500 ft
< 800m
< 200 ft
Symbols :   Thunderstorms  Fog  Heavy snow  Heavy precipitations  Wind > 20 kt






- Airport Elevation : 109 ft


KGSB - Seymour Johnson Air Force Base

CURRENT METAR :
  • 120256Z AUTO 00000KT 10SM CLR 05/M03 A3052 RMK AO2 SLPNO T00471033 51012 $

EXPIRED METARs :
  • 120156Z AUTO 29003KT 10SM CLR 05/M03 A3051 RMK AO2 SLPNO T00501033 $
  • 120056Z AUTO 30003KT 10SM CLR 05/M03 A3050 RMK AO2 SLPNO T00531028 $

TAF TAF KGSB
Valid from the 11 at 21:00 until the 13 at 03:00 UTC


112100Z 1121/1303 33006KT 9999 FBKN200 QNH3038INS
BECMG 1201/1202 35006KT 9999 SKC QNH3039INS
BECMG 1217/1218 06009KT 9999 SCT030 QNH3050INS TX08/1122Z TNM02/1210Z



MET'MAP, your aeronautical weather chart ! - Copyright ORBIFLY December 2007 - Disclaimer

ORBIFLY MET'MAP TEAM :

Programming & Development : Alexandra Zaïnal
Concept & original design : Baudouin d'Aumeries
Assistance for programming : Marc-Olivier Méhu
Technical & hardware support : Manuel Goepfert

Contact : metmap@orbifly.com




SOURCES & CREDITS :

   NOAA       Earth
Advisory